createdAt,value
2017-08-06T00:03:27.041Z,78.30
2017-08-06T00:08:30.208Z,80.00
2017-08-06T00:13:33.408Z,81.30
2017-08-06T00:18:36.630Z,81.70
2017-08-06T00:23:39.823Z,82.30
2017-08-06T00:28:43.018Z,81.60
2017-08-06T00:33:46.214Z,81.60
2017-08-06T00:38:49.398Z,80.00
2017-08-06T00:43:53.442Z,81.60
2017-08-06T00:48:56.797Z,80.90
2017-08-06T00:53:59.989Z,81.50
2017-08-06T00:59:03.208Z,82.90
2017-08-06T01:04:06.401Z,84.00
2017-08-06T01:09:09.565Z,83.00
2017-08-06T01:14:13.526Z,84.10
2017-08-06T01:19:16.712Z,84.10
2017-08-06T01:24:20.656Z,83.60
2017-08-06T01:29:23.834Z,83.60
2017-08-06T01:34:27.787Z,83.70
2017-08-06T01:39:30.978Z,83.70
2017-08-06T01:44:34.165Z,83.50
2017-08-06T01:49:38.116Z,83.00
2017-08-06T01:54:41.293Z,82.90
2017-08-06T01:59:45.234Z,82.40
2017-08-06T02:04:48.451Z,83.20
2017-08-06T02:09:51.621Z,82.80
2017-08-06T02:14:55.600Z,85.50
2017-08-06T02:19:58.777Z,85.50
2017-08-06T02:25:02.773Z,86.20
2017-08-06T02:30:06.026Z,86.20
2017-08-06T02:35:09.231Z,87.10
2017-08-06T02:40:12.413Z,88.20
2017-08-06T02:45:16.449Z,87.70
2017-08-06T02:50:20.395Z,87.40
2017-08-06T02:55:23.763Z,87.40
2017-08-06T03:00:26.960Z,87.00
2017-08-06T03:05:30.165Z,87.90
2017-08-06T03:10:33.358Z,87.90
2017-08-06T03:15:36.565Z,87.40
2017-08-06T03:20:39.773Z,86.40
2017-08-06T03:25:42.953Z,86.20
2017-08-06T03:30:46.130Z,86.90
2017-08-06T03:35:49.325Z,87.00
2017-08-06T03:40:53.277Z,87.70
2017-08-06T03:45:56.457Z,87.20
2017-08-06T03:51:00.425Z,87.40
2017-08-06T03:56:03.587Z,87.40
2017-08-06T04:01:07.539Z,87.70
2017-08-06T04:06:10.745Z,86.90
2017-08-06T04:11:13.925Z,87.90
2017-08-06T04:16:17.886Z,86.30
2017-08-06T04:21:21.089Z,86.30
2017-08-06T04:26:24.278Z,87.70
2017-08-06T04:31:27.469Z,87.40
2017-08-06T04:36:31.410Z,86.50
2017-08-06T04:41:35.346Z,84.80
2017-08-06T04:46:38.525Z,84.70
2017-08-06T04:51:42.509Z,81.60
2017-08-06T04:56:45.677Z,81.60
2017-08-06T05:01:48.850Z,79.60
2017-08-06T05:06:52.121Z,72.70
2017-08-06T05:11:55.355Z,72.60
2017-08-06T05:16:58.589Z,73.40
2017-08-06T05:22:02.554Z,70.30
2017-08-06T05:27:05.775Z,70.20
2017-08-06T05:32:08.965Z,66.90
2017-08-06T05:37:12.255Z,63.30
2017-08-06T05:42:16.206Z,58.50
2017-08-06T05:47:19.402Z,58.40
2017-08-06T05:52:22.594Z,56.60
2017-08-06T05:57:25.790Z,57.50
2017-08-06T06:02:28.999Z,62.90
2017-08-06T06:07:32.205Z,61.60
2017-08-06T06:12:36.174Z,59.40
2017-08-06T06:17:39.343Z,59.30
2017-08-06T06:22:42.645Z,58.10
2017-08-06T06:27:46.736Z,58.20
2017-08-06T06:32:49.920Z,58.20
2017-08-06T06:37:53.220Z,57.00
2017-08-06T06:42:56.406Z,60.90
2017-08-06T06:47:59.596Z,60.10
2017-08-06T06:53:03.681Z,58.00
2017-08-06T06:58:06.909Z,57.90
2017-08-06T07:03:10.115Z,57.80
2017-08-06T07:08:13.436Z,59.30
2017-08-06T07:13:16.610Z,57.60
2017-08-06T07:18:20.702Z,56.00
2017-08-06T07:23:23.942Z,54.30
2017-08-06T07:28:27.119Z,53.40
2017-08-06T07:33:33.452Z,53.60
2017-08-06T07:38:37.637Z,52.40
2017-08-06T07:43:40.846Z,52.20
2017-08-06T07:48:44.057Z,53.70
2017-08-06T07:53:47.253Z,52.50
2017-08-06T07:58:50.454Z,52.80
2017-08-06T08:03:53.643Z,51.30
2017-08-06T08:08:57.614Z,49.10
2017-08-06T08:14:00.924Z,48.90
2017-08-06T08:19:04.148Z,50.00
2017-08-06T08:24:07.325Z,54.40
2017-08-06T08:29:10.510Z,56.20
2017-08-06T08:34:13.718Z,57.20
2017-08-06T08:39:16.919Z,49.90
2017-08-06T08:44:20.853Z,46.50
2017-08-06T08:49:24.044Z,46.50
2017-08-06T08:54:27.977Z,50.60
2017-08-06T08:59:31.287Z,50.50
2017-08-06T09:04:35.213Z,46.10
2017-08-06T09:09:38.417Z,46.00
2017-08-06T09:14:41.609Z,44.20
2017-08-06T09:19:45.590Z,39.90
2017-08-06T09:24:48.785Z,39.90
2017-08-06T09:29:51.980Z,40.00
2017-08-06T09:34:55.165Z,42.70
2017-08-06T09:39:59.129Z,41.40
2017-08-06T09:45:02.334Z,41.40
2017-08-06T09:50:05.541Z,40.50
2017-08-06T09:55:08.724Z,41.40
2017-08-06T10:00:11.921Z,40.60
2017-08-06T10:05:15.089Z,42.30
2017-08-06T10:10:18.306Z,42.30
2017-08-06T10:15:21.491Z,43.20
2017-08-06T10:20:24.827Z,40.60
2017-08-06T10:25:28.007Z,39.20
2017-08-06T10:30:31.269Z,39.50
2017-08-06T10:35:35.243Z,39.60
2017-08-06T10:40:38.421Z,39.60
2017-08-06T10:45:41.628Z,41.40
2017-08-06T10:50:44.837Z,41.60
2017-08-06T10:55:48.029Z,41.50
2017-08-06T11:00:51.254Z,41.50
2017-08-06T11:05:54.465Z,40.30
2017-08-06T11:10:57.639Z,40.90
2017-08-06T11:16:00.841Z,38.10
2017-08-06T11:21:04.047Z,38.50
2017-08-06T11:26:07.256Z,36.70
2017-08-06T11:31:10.432Z,37.30
2017-08-06T11:36:13.608Z,38.20
2017-08-06T11:41:16.795Z,39.60
2017-08-06T11:46:20.089Z,37.20
2017-08-06T11:51:24.033Z,39.30
2017-08-06T11:56:27.353Z,39.30
2017-08-06T12:01:30.533Z,38.00
2017-08-06T12:06:33.727Z,37.30
2017-08-06T12:11:36.913Z,36.80
2017-08-06T12:16:40.869Z,36.90
2017-08-06T12:21:44.079Z,36.30
2017-08-06T12:26:47.262Z,36.00
2017-08-06T12:31:51.210Z,35.20
2017-08-06T12:36:54.401Z,35.10
2017-08-06T12:41:57.585Z,34.90
2017-08-06T12:47:01.591Z,36.00
2017-08-06T12:52:04.775Z,35.90
2017-08-06T12:57:07.977Z,35.20
2017-08-06T13:02:11.178Z,35.10
2017-08-06T13:07:14.373Z,34.60
2017-08-06T13:12:17.552Z,34.60
2017-08-06T13:17:21.502Z,35.90
2017-08-06T13:22:24.797Z,35.90
2017-08-06T13:27:28.746Z,36.10
2017-08-06T13:32:31.984Z,36.00
2017-08-06T13:37:35.186Z,35.60
2017-08-06T13:42:38.390Z,35.40
2017-08-06T13:47:41.566Z,36.90
2017-08-06T13:52:44.744Z,35.90
2017-08-06T13:57:48.729Z,35.10
2017-08-06T14:02:51.938Z,35.10
2017-08-06T14:07:55.162Z,34.00
2017-08-06T14:12:58.362Z,35.20
2017-08-06T14:18:01.562Z,34.50
2017-08-06T14:23:04.777Z,35.50
2017-08-06T14:28:08.349Z,34.00
2017-08-06T14:33:11.833Z,34.20
2017-08-06T14:38:15.814Z,34.70
2017-08-06T14:43:19.027Z,34.60
2017-08-06T14:48:22.282Z,35.00
2017-08-06T14:53:26.368Z,33.80
2017-08-06T14:58:29.552Z,33.70
2017-08-06T15:03:32.729Z,34.90
2017-08-06T15:08:35.939Z,34.00
2017-08-06T15:13:39.115Z,34.00
2017-08-06T15:18:43.090Z,34.10
2017-08-06T15:23:46.352Z,33.50
2017-08-06T15:28:50.421Z,33.60
2017-08-06T15:33:53.641Z,32.90
2017-08-06T15:38:56.851Z,33.60
2017-08-06T15:44:00.070Z,32.80
2017-08-06T15:49:03.278Z,34.30
2017-08-06T15:54:06.478Z,33.50
2017-08-06T15:59:09.697Z,31.40
2017-08-06T16:04:12.883Z,32.90
2017-08-06T16:09:16.062Z,32.50
2017-08-06T16:14:19.246Z,32.40
2017-08-06T16:19:23.213Z,33.10
2017-08-06T16:24:26.410Z,33.10
2017-08-06T16:29:29.601Z,35.20
2017-08-06T16:34:32.799Z,34.50
2017-08-06T16:39:36.085Z,33.80
2017-08-06T16:44:39.258Z,34.60
2017-08-06T16:49:42.405Z,34.50
2017-08-06T16:54:46.373Z,35.10
2017-08-06T16:59:49.563Z,34.40
2017-08-06T17:04:52.798Z,34.10
2017-08-06T17:09:55.985Z,35.00
2017-08-06T17:14:59.181Z,34.40
2017-08-06T17:20:02.399Z,34.90
2017-08-06T17:25:05.618Z,35.10
2017-08-06T17:30:09.718Z,35.40
2017-08-06T17:35:12.957Z,35.50
2017-08-06T17:40:16.204Z,35.60
2017-08-06T17:45:19.397Z,36.00
2017-08-06T17:50:22.571Z,36.80
2017-08-06T17:55:25.765Z,36.80
2017-08-06T18:00:28.995Z,38.10
2017-08-06T18:05:32.162Z,38.40
2017-08-06T18:10:36.149Z,39.80
2017-08-06T18:15:39.400Z,39.70
2017-08-06T18:20:43.354Z,41.20
2017-08-06T18:25:46.531Z,40.90
2017-08-06T18:30:49.745Z,43.40
2017-08-06T18:35:52.933Z,44.10
2017-08-06T18:40:56.891Z,45.70
2017-08-06T18:46:00.186Z,45.50
2017-08-06T18:51:03.357Z,47.30
2017-08-06T18:56:07.364Z,49.90
2017-08-06T19:01:10.545Z,49.80
2017-08-06T19:06:13.762Z,50.00
2017-08-06T19:11:16.968Z,51.10
2017-08-06T19:16:20.163Z,51.00
2017-08-06T19:21:23.395Z,52.90
2017-08-06T19:26:26.613Z,52.80
2017-08-06T19:31:29.802Z,53.20
2017-08-06T19:36:33.023Z,53.60
2017-08-06T19:41:36.210Z,54.10
2017-08-06T19:46:39.435Z,53.60
2017-08-06T19:51:42.619Z,54.00
2017-08-06T19:56:45.836Z,54.90
2017-08-06T20:01:49.086Z,55.40
2017-08-06T20:06:53.051Z,55.40
2017-08-06T20:11:56.270Z,55.20
2017-08-06T20:16:59.471Z,55.50
2017-08-06T20:22:02.685Z,55.50
2017-08-06T20:27:05.903Z,55.20
2017-08-06T20:32:09.084Z,54.00
2017-08-06T20:37:12.297Z,54.70
2017-08-06T20:42:15.525Z,55.10
2017-08-06T20:47:18.734Z,56.60
2017-08-06T20:52:22.047Z,57.30
2017-08-06T20:57:25.237Z,57.40
2017-08-06T21:02:28.421Z,58.00
2017-08-06T21:07:31.627Z,58.80
2017-08-06T21:12:34.824Z,59.60
2017-08-06T21:17:38.812Z,62.10
2017-08-06T21:22:41.986Z,62.10
2017-08-06T21:27:45.156Z,63.40
2017-08-06T21:32:48.344Z,64.00
2017-08-06T21:37:52.297Z,65.70
2017-08-06T21:42:55.524Z,65.70
2017-08-06T21:47:58.709Z,66.40
2017-08-06T21:53:01.929Z,65.10
2017-08-06T21:58:05.138Z,65.10
2017-08-06T22:03:08.366Z,64.20
2017-08-06T22:08:11.561Z,63.60
2017-08-06T22:13:14.775Z,64.40
2017-08-06T22:18:17.965Z,65.30
2017-08-06T22:23:21.517Z,66.20
2017-08-06T22:28:24.693Z,67.80
2017-08-06T22:33:27.894Z,69.80
2017-08-06T22:38:31.070Z,70.10
2017-08-06T22:43:34.282Z,70.50
2017-08-06T22:48:37.473Z,70.60
2017-08-06T22:53:41.440Z,71.10
2017-08-06T22:58:44.629Z,71.10
2017-08-06T23:03:47.833Z,70.00
2017-08-06T23:08:51.028Z,70.50
2017-08-06T23:13:54.203Z,70.30
2017-08-06T23:18:57.420Z,71.40
2017-08-06T23:24:01.361Z,69.80
2017-08-06T23:29:04.526Z,69.70
2017-08-06T23:34:07.715Z,69.00
2017-08-06T23:39:10.919Z,69.60
2017-08-06T23:44:14.099Z,70.60
2017-08-06T23:49:17.289Z,71.20
2017-08-06T23:54:21.250Z,71.70
2017-08-06T23:59:24.537Z,71.70
